createdAt,value
2019-03-25T07:41:08.956Z,7124.00
2019-03-25T07:42:09.124Z,8124.00
2019-03-25T07:43:09.291Z,9260.00
2019-03-25T07:44:09.456Z,7608.00
2019-03-25T07:45:09.625Z,8068.00
2019-03-25T07:46:09.794Z,8008.00
2019-03-25T07:47:09.958Z,7696.00
2019-03-25T07:48:10.133Z,9144.00
2019-03-25T07:49:10.295Z,9428.00
2019-03-25T07:50:10.463Z,9640.00
2019-03-25T07:51:10.639Z,10236.00
2019-03-25T07:52:10.807Z,7988.00
2019-03-25T07:53:10.975Z,8272.00
2019-03-25T07:54:11.163Z,9560.00
2019-03-25T07:55:11.334Z,11264.00
2019-03-25T07:56:11.479Z,7208.00
2019-03-25T07:57:11.902Z,9364.00
2019-03-25T07:58:11.830Z,11348.00
2019-03-25T07:59:11.998Z,8084.00
2019-03-25T08:00:13.717Z,8048.00
2019-03-25T08:01:12.349Z,12980.00
2019-03-25T08:02:15.095Z,9812.00
2019-03-25T08:03:12.671Z,9000.00
2019-03-25T08:04:12.840Z,9312.00
2019-03-25T08:05:13.009Z,9496.00
2019-03-25T08:06:13.188Z,8312.00
2019-03-25T08:07:13.352Z,9100.00
2019-03-25T08:08:13.532Z,9324.00
2019-03-25T08:09:13.722Z,10112.00
2019-03-25T08:10:13.901Z,9372.00
2019-03-25T08:11:14.060Z,7496.00
2019-03-25T08:12:14.219Z,8188.00
2019-03-25T08:13:14.501Z,8564.00
2019-03-25T08:14:14.552Z,8292.00
2019-03-25T08:15:14.740Z,13288.00
2019-03-25T08:16:14.907Z,9188.00
2019-03-25T08:17:15.065Z,15616.00
2019-03-25T08:18:15.238Z,7384.00
2019-03-25T08:19:15.407Z,8276.00
2019-03-25T08:20:15.578Z,10328.00
2019-03-25T08:21:15.749Z,9824.00
2019-03-25T08:22:15.919Z,7088.00
2019-03-25T08:23:16.090Z,6268.00
2019-03-25T08:24:16.260Z,5952.00
2019-03-25T08:25:16.433Z,5972.00
2019-03-25T08:26:16.604Z,5924.00
2019-03-25T08:27:16.776Z,6216.00
2019-03-25T08:28:16.946Z,6848.00
2019-03-25T08:29:17.118Z,7212.00
2019-03-25T08:30:17.289Z,8420.00
2019-03-25T08:31:17.459Z,7648.00
2019-03-25T08:32:17.630Z,6856.00
2019-03-25T08:33:17.802Z,7012.00
2019-03-25T08:34:17.975Z,8104.00
2019-03-25T08:35:18.142Z,9404.00
2019-03-25T08:36:18.315Z,9560.00
2019-03-25T08:37:18.484Z,7480.00
2019-03-25T08:38:18.652Z,5760.00
2019-03-25T08:39:18.827Z,5688.00
2019-03-25T08:40:19.001Z,6056.00
2019-03-25T08:41:19.172Z,6520.00
2019-03-25T08:42:19.346Z,5688.00
2019-03-25T08:43:19.511Z,5048.00
2019-03-25T08:44:19.684Z,4940.00
2019-03-25T08:45:19.856Z,5328.00
2019-03-25T08:46:20.025Z,6176.00
2019-03-25T08:47:20.200Z,5612.00
2019-03-25T08:48:20.371Z,5284.00
2019-03-25T08:49:20.542Z,5672.00
2019-03-25T08:50:20.722Z,7580.00
2019-03-25T08:51:20.886Z,10156.00
2019-03-25T08:52:21.055Z,13336.00
2019-03-25T08:53:21.227Z,12936.00
2019-03-25T08:54:21.974Z,13016.00
2019-03-25T08:55:21.555Z,8856.00
2019-03-25T08:56:21.730Z,9340.00
2019-03-25T08:57:21.910Z,11144.00
2019-03-25T08:58:22.069Z,11568.00
2019-03-25T08:59:22.237Z,9452.00
2019-03-25T09:00:22.411Z,8728.00
2019-03-25T09:01:22.583Z,8328.00
2019-03-25T09:02:22.753Z,8388.00
2019-03-25T09:03:22.923Z,8516.00
2019-03-25T09:04:23.095Z,9060.00
2019-03-25T09:05:23.268Z,8588.00
2019-03-25T09:06:23.437Z,8812.00
2019-03-25T09:07:23.606Z,9104.00
2019-03-25T09:08:23.775Z,9244.00
2019-03-25T09:09:23.953Z,9168.00
2019-03-25T09:10:24.120Z,9416.00
2019-03-25T09:11:24.288Z,10264.00
2019-03-25T09:12:24.460Z,12184.00
2019-03-25T09:13:24.636Z,12136.00
2019-03-25T09:14:24.801Z,13696.00
2019-03-25T09:15:24.978Z,17280.00
2019-03-25T09:16:25.143Z,49184.00
2019-03-25T09:17:25.313Z,46016.00
2019-03-25T09:18:25.482Z,14700.00
2019-03-25T09:19:25.655Z,15752.00
2019-03-25T09:20:25.828Z,15528.00
2019-03-25T09:21:25.999Z,23744.00
2019-03-25T09:22:26.168Z,43776.00
2019-03-25T09:23:26.348Z,41024.00
2019-03-25T09:24:26.514Z,43968.00
2019-03-25T09:25:26.683Z,46784.00
2019-03-25T09:26:26.855Z,48448.00
2019-03-25T09:27:27.027Z,52416.00
2019-03-25T09:28:27.205Z,48544.00
2019-03-25T09:29:27.369Z,19488.00
2019-03-25T09:30:27.542Z,26944.00
2019-03-25T09:31:36.338Z,24608.00
2019-03-25T09:32:27.889Z,29408.00
2019-03-25T09:33:28.064Z,18976.00
2019-03-25T09:34:28.238Z,17248.00
2019-03-25T09:35:28.407Z,14816.00
2019-03-25T09:36:28.580Z,12424.00
2019-03-25T09:37:28.754Z,11212.00
2019-03-25T09:38:28.926Z,10644.00
2019-03-25T09:39:29.104Z,9712.00
2019-03-25T09:40:29.274Z,8156.00
2019-03-25T09:41:29.444Z,6760.00
2019-03-25T09:42:29.617Z,5868.00
2019-03-25T09:43:29.788Z,6344.00
2019-03-25T09:44:29.960Z,8508.00
2019-03-25T09:45:30.131Z,10584.00
2019-03-25T09:46:30.301Z,10368.00
2019-03-25T09:47:30.472Z,8976.00
2019-03-25T09:48:30.645Z,9696.00
2019-03-25T09:49:30.816Z,10132.00
2019-03-25T09:50:30.988Z,9444.00
2019-03-25T09:51:31.170Z,9120.00
2019-03-25T09:52:38.523Z,9400.00
2019-03-25T09:53:31.502Z,10052.00
2019-03-25T09:54:31.674Z,12068.00
2019-03-25T09:55:31.844Z,13804.00
2019-03-25T09:56:32.015Z,14184.00
2019-03-25T09:57:32.186Z,13584.00
2019-03-25T09:58:36.454Z,12440.00
2019-03-25T09:59:32.527Z,11824.00
2019-03-25T10:00:32.697Z,11404.00
2019-03-25T10:01:32.867Z,11420.00
2019-03-25T10:02:33.039Z,10500.00
2019-03-25T10:03:33.209Z,8280.00
2019-03-25T10:04:33.380Z,7420.00
2019-03-25T10:05:33.552Z,7628.00
2019-03-25T10:06:33.723Z,8236.00
2019-03-25T10:07:33.894Z,9420.00
2019-03-25T10:08:34.068Z,11744.00
2019-03-25T10:09:34.223Z,15484.00
2019-03-25T10:10:34.396Z,20544.00
2019-03-25T10:11:34.568Z,59744.00
2019-03-25T10:12:34.740Z,59904.00
2019-03-25T10:13:34.913Z,69440.00
2019-03-25T10:14:35.083Z,35744.00
2019-03-25T10:15:35.253Z,21760.00
2019-03-25T10:16:35.423Z,17088.00
2019-03-25T10:17:35.594Z,12032.00
2019-03-25T10:18:35.765Z,9992.00
2019-03-25T10:19:35.936Z,9320.00
2019-03-25T10:20:36.105Z,9104.00
2019-03-25T10:21:36.279Z,10084.00
2019-03-25T10:22:36.455Z,11908.00
2019-03-25T10:23:36.618Z,12668.00
2019-03-25T10:24:36.787Z,14888.00
2019-03-25T10:25:36.956Z,18528.00
2019-03-25T10:26:37.128Z,21056.00
2019-03-25T10:27:37.309Z,18592.00
2019-03-25T10:28:47.876Z,14988.00
2019-03-25T10:29:37.657Z,11088.00
2019-03-25T10:30:37.828Z,7284.00
2019-03-25T10:31:38.000Z,4724.00
2019-03-25T10:32:38.170Z,3544.00
2019-03-25T10:33:38.342Z,2952.00
2019-03-25T10:34:38.515Z,2632.00
2019-03-25T10:35:38.686Z,2236.00
2019-03-25T10:36:38.860Z,2112.00
2019-03-25T10:37:39.032Z,2688.00
2019-03-25T10:38:39.205Z,2992.00
2019-03-25T10:39:39.375Z,2876.00
2019-03-25T10:40:39.549Z,3188.00
2019-03-25T10:41:39.719Z,4608.00
2019-03-25T10:42:39.900Z,6260.00
2019-03-25T10:43:40.075Z,6900.00
2019-03-25T10:44:40.240Z,8380.00
2019-03-25T10:45:40.415Z,10520.00
2019-03-25T10:46:40.589Z,11720.00
2019-03-25T10:47:40.755Z,12572.00
2019-03-25T10:48:40.928Z,13532.00
2019-03-25T10:49:41.104Z,14468.00
2019-03-25T10:50:41.275Z,15932.00
2019-03-25T10:51:41.445Z,17216.00
2019-03-25T10:52:41.612Z,22272.00
2019-03-25T10:53:41.785Z,25600.00
2019-03-25T10:54:41.982Z,27680.00
2019-03-25T10:55:42.127Z,21248.00
2019-03-25T10:56:48.994Z,29312.00
2019-03-25T10:57:42.462Z,20864.00
2019-03-25T10:58:42.632Z,16192.00
2019-03-25T10:59:42.804Z,14428.00
2019-03-25T11:00:42.973Z,13440.00
2019-03-25T11:01:43.144Z,12204.00
2019-03-25T11:02:43.316Z,11512.00
2019-03-25T11:03:43.489Z,11764.00
2019-03-25T11:04:43.655Z,12296.00
2019-03-25T11:05:43.826Z,12164.00
2019-03-25T11:06:43.993Z,13624.00
2019-03-25T11:07:44.164Z,13752.00
2019-03-25T11:08:44.336Z,14284.00
2019-03-25T11:09:44.505Z,18688.00
2019-03-25T11:10:44.665Z,22752.00
2019-03-25T11:11:44.835Z,25152.00
2019-03-25T11:12:45.009Z,29472.00
2019-03-25T11:13:45.177Z,33024.00
2019-03-25T11:14:45.348Z,38496.00
2019-03-25T11:15:45.537Z,49120.00
2019-03-25T11:16:45.696Z,51712.00
2019-03-25T11:17:45.880Z,57792.00
2019-03-25T11:18:46.048Z,55936.00
2019-03-25T11:19:46.219Z,66144.00
2019-03-25T11:20:46.389Z,75680.00
2019-03-25T11:21:46.559Z,71008.00
2019-03-25T11:22:46.731Z,73088.00
2019-03-25T11:23:46.904Z,47520.00
2019-03-25T11:24:47.073Z,85856.00
2019-03-25T11:25:47.252Z,84160.00
2019-03-25T11:26:47.414Z,91936.00
2019-03-25T11:27:54.304Z,88480.00
2019-03-25T11:28:47.759Z,80864.00
2019-03-25T11:29:47.929Z,86528.00
2019-03-25T11:30:48.103Z,88640.00
2019-03-25T11:31:48.279Z,89984.00
2019-03-25T11:32:48.450Z,94272.00
2019-03-25T11:33:48.624Z,103360.00
2019-03-25T11:34:48.804Z,108608.00
2019-03-25T11:35:48.974Z,35872.00
2019-03-25T11:36:49.152Z,27424.00
2019-03-25T11:37:49.323Z,31168.00
2019-03-25T11:38:49.500Z,95424.00
2019-03-25T11:39:49.676Z,101920.00
2019-03-25T11:40:49.849Z,55136.00
2019-03-25T11:41:50.026Z,30240.00
2019-03-25T11:42:50.198Z,95424.00
2019-03-25T11:43:50.376Z,103680.00
2019-03-25T11:44:50.549Z,60128.00
2019-03-25T11:45:50.727Z,101888.00
2019-03-25T11:46:50.902Z,100992.00
2019-03-25T11:47:51.078Z,81056.00
2019-03-25T11:48:51.255Z,72736.00
2019-03-25T11:49:51.432Z,72384.00
2019-03-25T11:50:51.611Z,51840.00
2019-03-25T11:51:51.799Z,63264.00
2019-03-25T11:52:51.973Z,68832.00
2019-03-25T11:53:52.220Z,37376.00
2019-03-25T11:54:52.334Z,32096.00
2019-03-25T11:55:52.515Z,25216.00
2019-03-25T11:56:52.689Z,23424.00
2019-03-25T11:57:52.866Z,27616.00
2019-03-25T11:58:53.042Z,35264.00
2019-03-25T11:59:53.219Z,34496.00
2019-03-25T12:00:53.394Z,27904.00
2019-03-25T12:01:53.572Z,46624.00
2019-03-25T12:02:53.747Z,123456.00
2019-03-25T12:03:53.926Z,65504.00
2019-03-25T12:04:54.101Z,20576.00
2019-03-25T12:05:54.277Z,20160.00
2019-03-25T12:06:54.451Z,12612.00
2019-03-25T12:07:54.628Z,8664.00
2019-03-25T12:08:54.805Z,7580.00
2019-03-25T12:09:54.979Z,18880.00
2019-03-25T12:10:55.150Z,65408.00
2019-03-25T12:11:55.328Z,67456.00
2019-03-25T12:12:55.503Z,52224.00
2019-03-25T12:13:55.677Z,50016.00
2019-03-25T12:14:55.900Z,55648.00
2019-03-25T12:15:56.024Z,10040.00
2019-03-25T12:16:56.199Z,5600.00
2019-03-25T12:17:56.374Z,3516.00
2019-03-25T12:18:56.550Z,2784.00
2019-03-25T12:19:56.729Z,2312.00
2019-03-25T12:20:56.898Z,2120.00
2019-03-25T12:21:57.073Z,3120.00
2019-03-25T12:22:57.247Z,4860.00
2019-03-25T12:23:57.421Z,6688.00
2019-03-25T12:24:57.639Z,9708.00
2019-03-25T12:25:57.773Z,95104.00
2019-03-25T12:26:57.946Z,107328.00
2019-03-25T12:27:58.119Z,112800.00
2019-03-25T12:28:58.291Z,65152.00
2019-03-25T12:29:58.463Z,96704.00
2019-03-25T12:30:58.638Z,105184.00
2019-03-25T12:31:58.815Z,121280.00
2019-03-25T12:33:03.920Z,24256.00
2019-03-25T12:33:59.163Z,42912.00
2019-03-25T12:34:59.332Z,69120.00
2019-03-25T12:35:59.506Z,30016.00
2019-03-25T12:36:59.685Z,23680.00
2019-03-25T12:37:59.856Z,38144.00
2019-03-25T12:39:00.031Z,33504.00
2019-03-25T12:40:00.311Z,71520.00
2019-03-25T12:41:00.390Z,41536.00
2019-03-25T12:42:00.555Z,54400.00
2019-03-25T12:43:00.727Z,44864.00
2019-03-25T12:44:00.903Z,58528.00
2019-03-25T12:45:01.074Z,63040.00
2019-03-25T12:46:01.249Z,43968.00
2019-03-25T12:47:01.421Z,118080.00
2019-03-25T12:48:01.598Z,112096.00
2019-03-25T12:49:01.770Z,113248.00
2019-03-25T12:50:01.945Z,35424.00
2019-03-25T12:51:02.120Z,27520.00
2019-03-25T12:52:02.296Z,17632.00
2019-03-25T12:53:02.471Z,11988.00
2019-03-25T12:54:02.646Z,10296.00
2019-03-25T12:55:02.820Z,9472.00
2019-03-25T12:56:03.057Z,8184.00
2019-03-25T12:57:03.174Z,7820.00
2019-03-25T12:58:03.342Z,7572.00
2019-03-25T12:59:03.518Z,6404.00
2019-03-25T13:00:03.686Z,4840.00
2019-03-25T13:01:03.851Z,4612.00
2019-03-25T13:02:04.023Z,4592.00
2019-03-25T13:03:04.200Z,3800.00
2019-03-25T13:04:04.373Z,3476.00
2019-03-25T13:05:04.550Z,3384.00
2019-03-25T13:06:04.722Z,3696.00
2019-03-25T13:07:04.896Z,4604.00
2019-03-25T13:08:05.074Z,4772.00
2019-03-25T13:09:05.243Z,5492.00
2019-03-25T13:10:05.414Z,7860.00
2019-03-25T13:11:05.588Z,10504.00
2019-03-25T13:12:05.763Z,13052.00
2019-03-25T13:13:05.934Z,12388.00
2019-03-25T13:14:06.109Z,11176.00
2019-03-25T13:15:06.282Z,11640.00
2019-03-25T13:16:06.452Z,19680.00
2019-03-25T13:17:06.627Z,55424.00
2019-03-25T13:18:06.796Z,60032.00
2019-03-25T13:19:06.967Z,63584.00
2019-03-25T13:20:07.138Z,77088.00
2019-03-25T13:21:07.317Z,89376.00
2019-03-25T13:22:07.487Z,43872.00
2019-03-25T13:23:07.658Z,46368.00
2019-03-25T13:24:07.830Z,87136.00
2019-03-25T13:25:08.003Z,23712.00
2019-03-25T13:26:08.177Z,32928.00
2019-03-25T13:27:08.356Z,70560.00
2019-03-25T13:28:08.529Z,33952.00
2019-03-25T13:29:08.700Z,23680.00
2019-03-25T13:30:08.876Z,31104.00
2019-03-25T13:31:09.048Z,21760.00
2019-03-25T13:32:09.225Z,54528.00
2019-03-25T13:33:09.392Z,23680.00
2019-03-25T13:34:09.553Z,30656.00
2019-03-25T13:35:09.722Z,109408.00
2019-03-25T13:36:09.894Z,83968.00
2019-03-25T13:37:10.068Z,124160.00
2019-03-25T13:38:10.243Z,22144.00
2019-03-25T13:39:10.417Z,24192.00
2019-03-25T13:40:10.593Z,24768.00
2019-03-25T13:41:10.767Z,111328.00
2019-03-25T13:42:10.941Z,103040.00
2019-03-25T13:43:11.119Z,49696.00
2019-03-25T13:44:11.283Z,98560.00
2019-03-25T13:45:11.457Z,96960.00
2019-03-25T13:46:11.631Z,101696.00
2019-03-25T13:47:11.807Z,102912.00
2019-03-25T13:48:11.982Z,100032.00
2019-03-25T13:49:12.159Z,45824.00
2019-03-25T13:50:12.333Z,28896.00
2019-03-25T13:51:12.510Z,99968.00
2019-03-25T13:52:12.684Z,96768.00
2019-03-25T13:53:12.861Z,92160.00
2019-03-25T13:54:13.034Z,94624.00
2019-03-25T13:55:13.209Z,101920.00
2019-03-25T13:56:13.384Z,103936.00
2019-03-25T13:57:13.562Z,101024.00
2019-03-25T13:58:13.740Z,98464.00
2019-03-25T13:59:13.913Z,102240.00
2019-03-25T14:00:14.097Z,104128.00
2019-03-25T14:01:14.267Z,100160.00
2019-03-25T14:02:14.444Z,98272.00
2019-03-25T14:03:14.623Z,67040.00
2019-03-25T14:04:14.798Z,34880.00
2019-03-25T14:05:14.977Z,33280.00
2019-03-25T14:06:15.154Z,71712.00
2019-03-25T14:07:15.333Z,102400.00
2019-03-25T14:08:15.511Z,53504.00
2019-03-25T14:09:15.688Z,103360.00
2019-03-25T14:10:15.865Z,17024.00
2019-03-25T14:11:16.042Z,114848.00
2019-03-25T14:12:16.217Z,109184.00
2019-03-25T14:13:16.398Z,88320.00
2019-03-25T14:14:16.573Z,86848.00
2019-03-25T14:15:16.750Z,98912.00
2019-03-25T14:16:16.996Z,106848.00
2019-03-25T14:17:17.134Z,105728.00
2019-03-25T14:18:17.329Z,97088.00
2019-03-25T14:19:17.503Z,88576.00
2019-03-25T14:20:17.679Z,90656.00
2019-03-25T14:21:17.859Z,67264.00
2019-03-25T14:22:18.036Z,14688.00
2019-03-25T14:23:18.227Z,15492.00
2019-03-25T14:24:18.382Z,34176.00
2019-03-25T14:25:18.559Z,17408.00
2019-03-25T14:26:18.737Z,31840.00
2019-03-25T14:27:18.915Z,42080.00
2019-03-25T14:28:19.094Z,23360.00
2019-03-25T14:29:19.285Z,47424.00
2019-03-25T14:30:19.443Z,9304.00
2019-03-25T14:31:19.619Z,7224.00
2019-03-25T14:32:19.799Z,6248.00
2019-03-25T14:33:19.978Z,5712.00
2019-03-25T14:34:20.150Z,5364.00
2019-03-25T14:35:20.329Z,5148.00
2019-03-25T14:36:20.509Z,5028.00
2019-03-25T14:37:20.679Z,4956.00
2019-03-25T14:38:20.855Z,4944.00
2019-03-25T14:39:21.034Z,4932.00
2019-03-25T14:40:21.210Z,4928.00
2019-03-25T14:41:21.385Z,4928.00
2019-03-25T14:42:21.563Z,4960.00
2019-03-25T14:43:21.787Z,4608.00
2019-03-25T14:44:21.907Z,4072.00
2019-03-25T14:45:26.306Z,4224.00
2019-03-25T14:46:22.258Z,4024.00
2019-03-25T14:47:22.432Z,4604.00
2019-03-25T14:48:22.610Z,5528.00
2019-03-25T14:49:22.780Z,19584.00
2019-03-25T14:50:22.956Z,16256.00
2019-03-25T14:51:23.127Z,92800.00
2019-03-25T14:52:23.304Z,88864.00
2019-03-25T14:53:23.477Z,85376.00
2019-03-25T14:54:23.649Z,82528.00
2019-03-25T14:55:23.822Z,83488.00
2019-03-25T14:56:23.999Z,78016.00
2019-03-25T14:57:24.171Z,72576.00
2019-03-25T14:58:24.343Z,69504.00
2019-03-25T14:59:24.513Z,66240.00
2019-03-25T15:00:25.723Z,48704.00
2019-03-25T15:01:24.887Z,32160.00
2019-03-25T15:02:25.064Z,20480.00
2019-03-25T15:03:25.241Z,11588.00
2019-03-25T15:04:25.414Z,9756.00
2019-03-25T15:05:25.590Z,8580.00
2019-03-25T15:06:25.765Z,8820.00
2019-03-25T15:07:25.942Z,9212.00
2019-03-25T15:08:26.123Z,9684.00
2019-03-25T15:09:26.293Z,10320.00
2019-03-25T15:10:26.467Z,8796.00
2019-03-25T15:11:26.643Z,8296.00
2019-03-25T15:12:26.818Z,8692.00
2019-03-25T15:13:26.992Z,8796.00
2019-03-25T15:14:27.167Z,7760.00
2019-03-25T15:15:27.349Z,7060.00
2019-03-25T15:16:27.522Z,6536.00
2019-03-25T15:17:27.697Z,6020.00
2019-03-25T15:18:27.868Z,5304.00
2019-03-25T15:19:28.048Z,4468.00
2019-03-25T15:20:28.218Z,3520.00
2019-03-25T15:21:28.390Z,2840.00
2019-03-25T15:22:28.565Z,2656.00
2019-03-25T15:23:28.738Z,2732.00
2019-03-25T15:24:28.909Z,2876.00
2019-03-25T15:25:29.081Z,2948.00
2019-03-25T15:26:29.251Z,3132.00
2019-03-25T15:27:29.423Z,3172.00
2019-03-25T15:28:29.600Z,2792.00
2019-03-25T15:29:29.767Z,2556.00
2019-03-25T15:30:35.899Z,2800.00
2019-03-25T15:31:30.125Z,3296.00
2019-03-25T15:32:30.299Z,3824.00
2019-03-25T15:33:30.469Z,4560.00
2019-03-25T15:34:30.640Z,8864.00
2019-03-25T15:35:30.812Z,10420.00
2019-03-25T15:36:30.984Z,8312.00
2019-03-25T15:37:31.155Z,7832.00
2019-03-25T15:38:31.326Z,6172.00
2019-03-25T15:39:31.501Z,5464.00
2019-03-25T15:40:31.701Z,5212.00
2019-03-25T15:41:31.839Z,5020.00
2019-03-25T15:42:32.011Z,4880.00
2019-03-25T15:43:32.187Z,4784.00
2019-03-25T15:44:32.355Z,4776.00
2019-03-25T15:45:32.527Z,4840.00
2019-03-25T15:46:32.704Z,4984.00
2019-03-25T15:47:32.920Z,4988.00
2019-03-25T15:48:33.044Z,5272.00
2019-03-25T15:49:33.217Z,5508.00
2019-03-25T15:50:33.385Z,5764.00
2019-03-25T15:51:33.555Z,5912.00
2019-03-25T15:52:33.728Z,6912.00
2019-03-25T15:53:33.899Z,8368.00
2019-03-25T15:54:34.073Z,18240.00
2019-03-25T15:55:34.240Z,21856.00
2019-03-25T15:56:34.410Z,24608.00
2019-03-25T15:57:34.578Z,23648.00
2019-03-25T15:58:34.754Z,25568.00
2019-03-25T15:59:34.921Z,21216.00
2019-03-25T16:00:46.489Z,23232.00
2019-03-25T16:01:35.262Z,20160.00
2019-03-25T16:02:35.437Z,19200.00
2019-03-25T16:03:35.600Z,17120.00
2019-03-25T16:04:35.770Z,9852.00
2019-03-25T16:05:35.941Z,7240.00
2019-03-25T16:06:36.113Z,6456.00
2019-03-25T16:07:36.284Z,6148.00
2019-03-25T16:08:36.454Z,5584.00
2019-03-25T16:09:36.626Z,5060.00
2019-03-25T16:10:36.795Z,4600.00
2019-03-25T16:11:36.967Z,4116.00
2019-03-25T16:12:37.137Z,3696.00
2019-03-25T16:13:37.308Z,3260.00
2019-03-25T16:14:37.479Z,2616.00
2019-03-25T16:15:37.654Z,1804.00
2019-03-25T16:16:37.825Z,1516.00
2019-03-25T16:17:37.994Z,1596.00
2019-03-25T16:18:38.166Z,1724.00
2019-03-25T16:19:38.334Z,1844.00
2019-03-25T16:20:38.510Z,1892.00
2019-03-25T16:21:38.677Z,1900.00
2019-03-25T16:22:38.845Z,1876.00
2019-03-25T16:23:39.015Z,1848.00
2019-03-25T16:24:39.185Z,1904.00
2019-03-25T16:25:39.355Z,2284.00
2019-03-25T16:26:39.526Z,4288.00
2019-03-25T16:27:39.701Z,15008.00
2019-03-25T16:28:39.869Z,21408.00
2019-03-25T16:29:40.040Z,16992.00
2019-03-25T16:30:40.210Z,15904.00
2019-03-25T16:31:40.386Z,15200.00
2019-03-25T16:32:40.551Z,18656.00
2019-03-25T16:33:40.746Z,22208.00
2019-03-25T16:34:40.891Z,28256.00
2019-03-25T16:35:41.060Z,35904.00
2019-03-25T16:36:41.238Z,28544.00
2019-03-25T16:37:41.402Z,12480.00
2019-03-25T16:38:41.585Z,5956.00
2019-03-25T16:39:41.748Z,7736.00
2019-03-25T16:40:41.919Z,6084.00
2019-03-25T16:41:42.088Z,4528.00
2019-03-25T16:42:42.265Z,4472.00
2019-03-25T16:43:42.432Z,4112.00
2019-03-25T16:44:42.601Z,3756.00
2019-03-25T16:45:42.773Z,3296.00
2019-03-25T16:46:42.943Z,2888.00
2019-03-25T16:47:43.117Z,2516.00
2019-03-25T16:48:43.287Z,2160.00
2019-03-25T16:49:43.457Z,1840.00
2019-03-25T16:50:43.629Z,1588.00
2019-03-25T16:51:43.812Z,1520.00
2019-03-25T16:52:43.968Z,1552.00
2019-03-25T16:53:44.137Z,1580.00
2019-03-25T16:54:44.308Z,1704.00
2019-03-25T16:55:44.480Z,1728.00
2019-03-25T16:56:44.652Z,1908.00
2019-03-25T16:57:44.823Z,1992.00
2019-03-25T16:58:44.996Z,1768.00
2019-03-25T16:59:45.165Z,1472.00
2019-03-25T17:00:45.337Z,1340.00
2019-03-25T17:01:45.512Z,1220.00
2019-03-25T17:02:45.677Z,1252.00
2019-03-25T17:03:45.842Z,1576.00
2019-03-25T17:04:46.007Z,1808.00
2019-03-25T17:05:46.180Z,1768.00
2019-03-25T17:06:46.350Z,1632.00
2019-03-25T17:07:46.522Z,1544.00
2019-03-25T17:08:46.694Z,1424.00
2019-03-25T17:09:46.863Z,1316.00
2019-03-25T17:10:47.037Z,1324.00
2019-03-25T17:11:47.207Z,1380.00
2019-03-25T17:12:47.373Z,1448.00
2019-03-25T17:13:47.545Z,1436.00
2019-03-25T17:14:47.715Z,1412.00
2019-03-25T17:15:47.885Z,1340.00
2019-03-25T17:16:48.056Z,1368.00
2019-03-25T17:17:48.219Z,1320.00
2019-03-25T17:18:48.409Z,1184.00
2019-03-25T17:19:48.568Z,1092.00
2019-03-25T17:20:48.738Z,988.00
2019-03-25T17:21:57.651Z,948.00
2019-03-25T17:22:49.077Z,908.00
2019-03-25T17:23:49.250Z,852.00
2019-03-25T17:24:49.420Z,776.00
2019-03-25T17:25:53.249Z,696.00
2019-03-25T17:26:49.762Z,628.00
2019-03-25T17:27:49.930Z,584.00
2019-03-25T17:28:50.137Z,520.00
2019-03-25T17:29:50.277Z,480.00
2019-03-25T17:30:50.447Z,464.00
2019-03-25T17:31:50.618Z,436.00
2019-03-25T17:32:50.789Z,392.00
2019-03-25T17:33:50.959Z,352.00
2019-03-25T17:34:51.131Z,300.00
2019-03-25T17:35:51.317Z,252.00
2019-03-25T17:36:51.486Z,216.00
2019-03-25T17:37:51.655Z,184.00
2019-03-25T17:38:51.822Z,172.00
2019-03-25T17:39:51.991Z,160.00
2019-03-25T17:40:52.162Z,148.00
2019-03-25T17:41:52.373Z,132.00
2019-03-25T17:42:52.502Z,132.00
2019-03-25T17:43:52.672Z,128.00
2019-03-25T17:44:52.842Z,120.00
2019-03-25T17:45:53.018Z,112.00
2019-03-25T17:46:53.184Z,104.00
2019-03-25T17:47:53.361Z,92.00
2019-03-25T17:48:53.528Z,84.00
2019-03-25T17:49:53.695Z,72.00
2019-03-25T17:50:53.865Z,60.00
2019-03-25T17:51:54.036Z,48.00
2019-03-25T17:52:54.207Z,36.00
2019-03-25T17:53:54.379Z,28.00
2019-03-25T17:54:54.604Z,24.00
2019-03-25T17:55:54.768Z,20.00
2019-03-25T17:56:54.934Z,16.00
2019-03-25T17:57:55.103Z,12.00
2019-03-25T17:58:55.263Z,12.00
2019-03-25T17:59:55.435Z,8.00
2019-03-25T18:00:55.610Z,8.00
2019-03-25T18:01:55.776Z,8.00
2019-03-25T18:02:55.945Z,8.00
2019-03-25T18:03:56.116Z,4.00
2019-03-25T18:04:56.286Z,4.00
2019-03-25T18:05:56.457Z,4.00
2019-03-25T18:06:56.628Z,4.00
2019-03-25T18:07:56.808Z,4.00
2019-03-25T18:08:56.967Z,4.00
2019-03-25T18:09:57.182Z,4.00
2019-03-25T18:10:57.310Z,0.00
2019-03-25T18:11:57.478Z,0.00
2019-03-25T18:12:57.648Z,4.00
2019-03-25T18:13:57.826Z,0.00
2019-03-25T18:14:58.027Z,0.00
2019-03-25T18:15:58.233Z,0.00
2019-03-25T18:16:58.369Z,0.00
2019-03-25T18:17:58.538Z,0.00
2019-03-25T18:18:58.706Z,0.00
2019-03-25T18:20:00.136Z,0.00
2019-03-25T18:20:59.043Z,0.00
2019-03-25T18:21:59.215Z,0.00
2019-03-25T18:22:59.380Z,0.00
2019-03-25T18:23:59.549Z,0.00
2019-03-25T18:24:59.723Z,0.00
2019-03-25T18:25:59.884Z,0.00
2019-03-25T18:27:00.060Z,0.00
2019-03-25T18:28:00.226Z,0.00
2019-03-25T18:29:00.395Z,0.00
2019-03-25T18:30:00.562Z,0.00
2019-03-25T18:31:00.728Z,0.00
2019-03-25T18:32:00.898Z,0.00
2019-03-25T18:33:01.065Z,0.00
2019-03-25T18:34:01.235Z,0.00
2019-03-25T18:35:01.406Z,0.00
2019-03-25T18:36:01.577Z,0.00
2019-03-25T18:37:01.744Z,0.00
2019-03-25T18:38:01.917Z,0.00
2019-03-25T18:39:02.086Z,0.00
2019-03-25T18:40:02.255Z,0.00
2019-03-25T18:41:02.423Z,0.00
2019-03-25T18:42:02.593Z,0.00
2019-03-25T18:43:02.764Z,0.00
2019-03-25T18:44:02.934Z,0.00
2019-03-25T18:45:03.103Z,0.00
2019-03-25T18:46:03.282Z,0.00
2019-03-25T18:47:03.447Z,0.00
2019-03-25T18:48:03.624Z,0.00
2019-03-25T18:49:03.807Z,0.00
2019-03-25T18:50:03.947Z,0.00
2019-03-25T18:51:04.118Z,0.00
2019-03-25T18:52:04.308Z,0.00
2019-03-25T18:53:04.458Z,0.00
2019-03-25T18:54:04.630Z,0.00
2019-03-25T18:55:04.809Z,0.00
2019-03-25T18:56:04.972Z,0.00
2019-03-25T18:57:05.146Z,0.00
2019-03-25T18:58:05.309Z,0.00
2019-03-25T18:59:05.479Z,0.00
2019-03-25T19:00:05.661Z,0.00
2019-03-25T19:01:05.838Z,0.00
2019-03-25T19:02:05.992Z,0.00
2019-03-25T19:03:06.190Z,0.00
2019-03-25T19:04:06.342Z,0.00
2019-03-25T19:05:06.513Z,0.00
2019-03-25T19:06:06.680Z,0.00
2019-03-25T19:07:06.837Z,0.00
2019-03-25T19:08:07.007Z,0.00
2019-03-25T19:09:07.179Z,0.00
2019-03-25T19:10:07.361Z,0.00
2019-03-25T19:11:07.510Z,0.00
2019-03-25T19:12:07.686Z,0.00
2019-03-25T19:13:07.861Z,0.00
2019-03-25T19:14:08.029Z,0.00
2019-03-25T19:15:08.188Z,0.00
2019-03-25T19:16:08.350Z,0.00
2019-03-25T19:17:08.540Z,0.00
2019-03-25T19:18:08.756Z,0.00
2019-03-25T19:19:08.862Z,0.00
2019-03-25T19:20:09.055Z,0.00
2019-03-25T19:21:09.211Z,0.00
2019-03-25T19:22:09.369Z,0.00
2019-03-25T19:23:09.559Z,0.00
2019-03-25T19:24:09.707Z,0.00
2019-03-25T19:25:09.908Z,0.00
2019-03-25T19:26:10.047Z,0.00
2019-03-25T19:27:10.222Z,0.00
2019-03-25T19:28:10.405Z,0.00
2019-03-25T19:29:10.560Z,0.00
2019-03-25T19:30:10.760Z,0.00
2019-03-25T19:31:10.935Z,0.00
2019-03-25T19:32:11.073Z,0.00
2019-03-25T19:33:11.244Z,0.00
2019-03-25T19:34:11.410Z,0.00
2019-03-25T19:35:11.581Z,0.00
2019-03-25T19:36:11.740Z,0.00
2019-03-25T19:37:11.924Z,0.00
2019-03-25T19:38:12.080Z,0.00
2019-03-25T19:39:12.252Z,0.00
2019-03-25T19:40:12.428Z,0.00
2019-03-25T19:41:12.590Z,0.00
2019-03-25T19:42:12.788Z,0.00
2019-03-25T19:43:12.931Z,0.00
2019-03-25T19:44:13.120Z,0.00
2019-03-25T19:45:13.340Z,0.00
2019-03-25T19:46:13.441Z,0.00
2019-03-25T19:47:13.630Z,0.00
2019-03-25T19:48:13.797Z,0.00
2019-03-25T19:49:13.970Z,0.00
2019-03-25T19:50:14.135Z,0.00